Aeroporto :
LOGIN :

Iscrizione | Disclaimer

   EN    FR    IT 

 










Sommario :    VFR   VFR Marginale   IFR   IFR Intensivo   IFR Molto Intensivo
Visibilità : 
Base nubi : 
>= 8 km
>= 3000ft
5 / 8 km
1000 / 3000 ft
1500m / 5 km
500 / 1000 ft
800 / 1500m
200 / 500 ft
< 800m
< 200 ft
Simboli :   Temporali  Nebbia  Neve Forte  Precipitazioni Forti  Vento > 20 kt
SIGMETs :   Varie  Temporali  Ghiacco  Turbolenza  Onda orograficha  Ceneri Vulcaniche







- Altitudine del aeroporto : 87 ft
- Codice IATA : FSC
- Carte del aeroporto


LFKF - Figari

ULTIMO METAR :
  • 190630Z AUTO 09003KT 060V120 9999 FEW030 BKN035 10/05 Q1022 NOSIG

METARs OBSOLETI :
  • 190600Z AUTO 09005KT 9999 BKN030 OVC035 10/05 Q1022 NOSIG
  • 190530Z AUTO 09004KT 050V120 9999 BKN036 09/05 Q1022 NOSIG
  • 190500Z AUTO 07005KT 9999 OVC036 10/05 Q1022 NOSIG
  • 190430Z AUTO 10004KT 070V140 9999 OVC036 10/05 Q1022 NOSIG
  • 190400Z AUTO 04006KT 9999 OVC035 09/05 Q1022 NOSIG

TAF TAF LFKF
Valido dal 19 a 03 ore il 20 a 03 ore UTC


190200Z 1903/2003 08008KT CAVOK
TEMPO 1903/1907 BKN026
Nessun NOTAM noto per questo aeroporto.



MetMap, La meteo Aeronautica in un colpo d'occhio ! - Copyright ORBIFLY Dicembre 2007 - Disclaimer

ORBIFLY MET'MAP TEAM :

Programmazione e sviluppo : Alexandra Zaïnal
Concezione e sviluppo : Baudouin d'Aumeries
Co-Programmazione e sviluppo : Marc-Olivier Méhu
Supporto tecnico e logistico : Manuel Goepfert
Aiuto per la traduzione : Arnaldo La Scala

Contatto : metmap@orbifly.com




FONTI E CREDITI :

   NOAA